sensor_id;sensor_type;location;lat;lon;timestamp;P1;durP1;ratioP1;P2;durP2;ratioP2
62724;SDS011;49026;52.600;4.694;2022-07-31T00:01:22;10.80;;;4.18;;
62724;SDS011;49026;52.600;4.694;2022-07-31T00:03:49;10.35;;;4.13;;
62724;SDS011;49026;52.600;4.694;2022-07-31T00:06:16;8.68;;;3.72;;
62724;SDS011;49026;52.600;4.694;2022-07-31T00:08:42;8.93;;;4.03;;
62724;SDS011;49026;52.600;4.694;2022-07-31T00:11:07;10.95;;;3.92;;
62724;SDS011;49026;52.600;4.694;2022-07-31T00:16:05;6.07;;;3.85;;
62724;SDS011;49026;52.600;4.694;2022-07-31T00:18:31;8.48;;;3.40;;
62724;SDS011;49026;52.600;4.694;2022-07-31T00:21:00;5.38;;;3.42;;
62724;SDS011;49026;52.600;4.694;2022-07-31T00:23:26;8.52;;;3.78;;
62724;SDS011;49026;52.600;4.694;2022-07-31T00:25:52;6.30;;;3.75;;
62724;SDS011;49026;52.600;4.694;2022-07-31T00:28:17;7.70;;;4.25;;
62724;SDS011;49026;52.600;4.694;2022-07-31T00:30:43;5.80;;;3.50;;
62724;SDS011;49026;52.600;4.694;2022-07-31T00:33:08;5.55;;;3.95;;
62724;SDS011;49026;52.600;4.694;2022-07-31T00:35:33;7.28;;;3.97;;
62724;SDS011;49026;52.600;4.694;2022-07-31T00:37:58;4.93;;;3.53;;
62724;SDS011;49026;52.600;4.694;2022-07-31T00:40:24;7.97;;;4.00;;
62724;SDS011;49026;52.600;4.694;2022-07-31T00:42:52;7.25;;;3.63;;
62724;SDS011;49026;52.600;4.694;2022-07-31T00:45:17;7.93;;;3.70;;
62724;SDS011;49026;52.600;4.694;2022-07-31T00:47:42;10.90;;;3.95;;
62724;SDS011;49026;52.600;4.694;2022-07-31T00:50:10;5.95;;;3.72;;
62724;SDS011;49026;52.600;4.694;2022-07-31T00:52:36;10.77;;;3.72;;
62724;SDS011;49026;52.600;4.694;2022-07-31T00:55:02;7.50;;;3.95;;
62724;SDS011;49026;52.600;4.694;2022-07-31T00:57:30;5.97;;;3.42;;
62724;SDS011;49026;52.600;4.694;2022-07-31T00:59:58;5.25;;;3.13;;
62724;SDS011;49026;52.600;4.694;2022-07-31T01:02:29;7.13;;;3.72;;
62724;SDS011;49026;52.600;4.694;2022-07-31T01:04:54;6.13;;;3.45;;
62724;SDS011;49026;52.600;4.694;2022-07-31T01:07:19;6.90;;;3.92;;
62724;SDS011;49026;52.600;4.694;2022-07-31T01:09:45;6.60;;;3.33;;
62724;SDS011;49026;52.600;4.694;2022-07-31T01:12:17;5.80;;;3.55;;
62724;SDS011;49026;52.600;4.694;2022-07-31T01:14:49;5.65;;;3.22;;
62724;SDS011;49026;52.600;4.694;2022-07-31T01:17:17;10.43;;;3.67;;
62724;SDS011;49026;52.600;4.694;2022-07-31T01:19:45;7.35;;;3.25;;
62724;SDS011;49026;52.600;4.694;2022-07-31T01:28:17;6.25;;;3.60;;
62724;SDS011;49026;52.600;4.694;2022-07-31T01:30:30;9.70;;;3.78;;
62724;SDS011;49026;52.600;4.694;2022-07-31T01:33:05;9.50;;;4.45;;
62724;SDS011;49026;52.600;4.694;2022-07-31T01:35:37;8.82;;;4.68;;
62724;SDS011;49026;52.600;4.694;2022-07-31T01:38:09;9.68;;;4.10;;
62724;SDS011;49026;52.600;4.694;2022-07-31T01:40:40;9.55;;;4.32;;
62724;SDS011;49026;52.600;4.694;2022-07-31T01:43:14;7.43;;;4.32;;
62724;SDS011;49026;52.600;4.694;2022-07-31T01:45:44;7.38;;;4.22;;
62724;SDS011;49026;52.600;4.694;2022-07-31T01:48:12;9.52;;;4.20;;
62724;SDS011;49026;52.600;4.694;2022-07-31T01:50:41;12.73;;;4.63;;
62724;SDS011;49026;52.600;4.694;2022-07-31T01:53:09;9.90;;;3.77;;
62724;SDS011;49026;52.600;4.694;2022-07-31T01:55:38;7.22;;;3.63;;
62724;SDS011;49026;52.600;4.694;2022-07-31T02:00:33;8.43;;;3.42;;
62724;SDS011;49026;52.600;4.694;2022-07-31T02:02:59;11.70;;;3.30;;
62724;SDS011;49026;52.600;4.694;2022-07-31T02:05:28;11.35;;;3.75;;
62724;SDS011;49026;52.600;4.694;2022-07-31T02:07:59;12.25;;;3.67;;
62724;SDS011;49026;52.600;4.694;2022-07-31T02:10:28;7.55;;;3.55;;
62724;SDS011;49026;52.600;4.694;2022-07-31T02:12:53;6.30;;;3.22;;
62724;SDS011;49026;52.600;4.694;2022-07-31T02:15:20;8.82;;;3.80;;
62724;SDS011;49026;52.600;4.694;2022-07-31T02:17:47;10.45;;;3.67;;
62724;SDS011;49026;52.600;4.694;2022-07-31T02:20:14;11.63;;;3.70;;
62724;SDS011;49026;52.600;4.694;2022-07-31T02:22:42;7.05;;;3.88;;
62724;SDS011;49026;52.600;4.694;2022-07-31T02:25:08;8.88;;;3.60;;
62724;SDS011;49026;52.600;4.694;2022-07-31T02:27:33;10.38;;;3.65;;
62724;SDS011;49026;52.600;4.694;2022-07-31T02:30:01;12.82;;;3.90;;
62724;SDS011;49026;52.600;4.694;2022-07-31T02:32:28;14.15;;;4.10;;
62724;SDS011;49026;52.600;4.694;2022-07-31T02:34:55;9.93;;;3.47;;
62724;SDS011;49026;52.600;4.694;2022-07-31T02:37:27;10.07;;;3.60;;
62724;SDS011;49026;52.600;4.694;2022-07-31T02:39:53;8.40;;;3.90;;
62724;SDS011;49026;52.600;4.694;2022-07-31T02:42:20;13.73;;;3.92;;
62724;SDS011;49026;52.600;4.694;2022-07-31T02:44:48;8.63;;;3.67;;
62724;SDS011;49026;52.600;4.694;2022-07-31T02:47:17;13.13;;;4.70;;
62724;SDS011;49026;52.600;4.694;2022-07-31T02:49:42;9.75;;;4.07;;
62724;SDS011;49026;52.600;4.694;2022-07-31T02:52:09;9.68;;;4.00;;
62724;SDS011;49026;52.600;4.694;2022-07-31T02:54:35;12.63;;;4.18;;
62724;SDS011;49026;52.600;4.694;2022-07-31T02:57:03;9.40;;;3.85;;
62724;SDS011;49026;52.600;4.694;2022-07-31T02:59:28;12.32;;;4.57;;
62724;SDS011;49026;52.600;4.694;2022-07-31T03:01:54;20.60;;;4.43;;
62724;SDS011;49026;52.600;4.694;2022-07-31T03:04:19;15.93;;;4.13;;
62724;SDS011;49026;52.600;4.694;2022-07-31T03:06:45;5.93;;;3.70;;
62724;SDS011;49026;52.600;4.694;2022-07-31T03:09:12;9.45;;;3.95;;
62724;SDS011;49026;52.600;4.694;2022-07-31T03:11:41;8.57;;;4.18;;
62724;SDS011;49026;52.600;4.694;2022-07-31T03:14:07;13.27;;;4.18;;
62724;SDS011;49026;52.600;4.694;2022-07-31T03:16:34;8.93;;;4.38;;
62724;SDS011;49026;52.600;4.694;2022-07-31T03:19:00;10.13;;;3.75;;
62724;SDS011;49026;52.600;4.694;2022-07-31T03:21:29;14.57;;;4.13;;
62724;SDS011;49026;52.600;4.694;2022-07-31T03:23:55;12.52;;;4.03;;
62724;SDS011;49026;52.600;4.694;2022-07-31T03:26:24;12.75;;;4.40;;
62724;SDS011;49026;52.600;4.694;2022-07-31T03:28:50;7.38;;;3.72;;
62724;SDS011;49026;52.600;4.694;2022-07-31T03:31:15;11.75;;;4.20;;
62724;SDS011;49026;52.600;4.694;2022-07-31T03:33:40;10.65;;;4.20;;
62724;SDS011;49026;52.600;4.694;2022-07-31T03:36:06;10.05;;;3.78;;
62724;SDS011;49026;52.600;4.694;2022-07-31T03:38:33;14.00;;;4.82;;
62724;SDS011;49026;52.600;4.694;2022-07-31T03:40:58;8.40;;;3.97;;
62724;SDS011;49026;52.600;4.694;2022-07-31T03:43:24;15.05;;;5.05;;
62724;SDS011;49026;52.600;4.694;2022-07-31T03:45:51;12.48;;;5.00;;
62724;SDS011;49026;52.600;4.694;2022-07-31T03:48:19;18.52;;;5.55;;
62724;SDS011;49026;52.600;4.694;2022-07-31T03:50:45;14.43;;;5.82;;
62724;SDS011;49026;52.600;4.694;2022-07-31T03:53:13;13.65;;;5.35;;
62724;SDS011;49026;52.600;4.694;2022-07-31T03:55:38;12.95;;;6.45;;
62724;SDS011;49026;52.600;4.694;2022-07-31T03:58:06;16.63;;;6.10;;
62724;SDS011;49026;52.600;4.694;2022-07-31T04:00:32;14.88;;;7.03;;
62724;SDS011;49026;52.600;4.694;2022-07-31T04:03:04;14.63;;;5.90;;
62724;SDS011;49026;52.600;4.694;2022-07-31T04:05:33;14.85;;;5.35;;
62724;SDS011;49026;52.600;4.694;2022-07-31T04:07:59;11.02;;;5.28;;
62724;SDS011;49026;52.600;4.694;2022-07-31T04:10:25;11.00;;;5.13;;
62724;SDS011;49026;52.600;4.694;2022-07-31T04:12:50;16.08;;;6.05;;
62724;SDS011;49026;52.600;4.694;2022-07-31T04:15:16;13.13;;;5.53;;
62724;SDS011;49026;52.600;4.694;2022-07-31T04:17:41;17.02;;;5.88;;
62724;SDS011;49026;52.600;4.694;2022-07-31T04:20:07;15.88;;;5.55;;
62724;SDS011;49026;52.600;4.694;2022-07-31T04:22:36;22.23;;;6.10;;
62724;SDS011;49026;52.600;4.694;2022-07-31T04:25:01;12.65;;;5.95;;
62724;SDS011;49026;52.600;4.694;2022-07-31T04:27:30;14.45;;;6.05;;
62724;SDS011;49026;52.600;4.694;2022-07-31T04:29:56;13.23;;;6.53;;
62724;SDS011;49026;52.600;4.694;2022-07-31T04:32:21;21.27;;;6.43;;
62724;SDS011;49026;52.600;4.694;2022-07-31T04:34:48;17.10;;;5.72;;
62724;SDS011;49026;52.600;4.694;2022-07-31T04:37:14;16.40;;;6.75;;
62724;SDS011;49026;52.600;4.694;2022-07-31T04:39:40;15.23;;;5.47;;
62724;SDS011;49026;52.600;4.694;2022-07-31T04:42:06;12.23;;;5.47;;
62724;SDS011;49026;52.600;4.694;2022-07-31T04:44:31;13.40;;;6.43;;
62724;SDS011;49026;52.600;4.694;2022-07-31T04:46:57;19.75;;;5.78;;
62724;SDS011;49026;52.600;4.694;2022-07-31T04:49:23;16.20;;;6.18;;
62724;SDS011;49026;52.600;4.694;2022-07-31T04:51:49;16.08;;;5.70;;
62724;SDS011;49026;52.600;4.694;2022-07-31T04:54:14;19.63;;;5.10;;
62724;SDS011;49026;52.600;4.694;2022-07-31T04:56:39;16.33;;;6.03;;
62724;SDS011;49026;52.600;4.694;2022-07-31T04:59:11;21.52;;;5.32;;
62724;SDS011;49026;52.600;4.694;2022-07-31T05:01:38;16.42;;;5.18;;
62724;SDS011;49026;52.600;4.694;2022-07-31T05:04:04;16.95;;;5.00;;
62724;SDS011;49026;52.600;4.694;2022-07-31T05:09:02;19.95;;;4.57;;
62724;SDS011;49026;52.600;4.694;2022-07-31T05:11:29;9.43;;;4.15;;
62724;SDS011;49026;52.600;4.694;2022-07-31T05:13:55;18.70;;;4.85;;
62724;SDS011;49026;52.600;4.694;2022-07-31T05:18:53;16.05;;;3.75;;
62724;SDS011;49026;52.600;4.694;2022-07-31T05:21:18;19.33;;;4.53;;
62724;SDS011;49026;52.600;4.694;2022-07-31T05:23:45;16.67;;;3.85;;
62724;SDS011;49026;52.600;4.694;2022-07-31T05:26:11;18.70;;;5.07;;
62724;SDS011;49026;52.600;4.694;2022-07-31T05:28:40;11.73;;;3.28;;
62724;SDS011;49026;52.600;4.694;2022-07-31T05:31:06;15.82;;;4.32;;
62724;SDS011;49026;52.600;4.694;2022-07-31T05:33:33;22.95;;;4.03;;
62724;SDS011;49026;52.600;4.694;2022-07-31T05:35:59;13.68;;;3.95;;
62724;SDS011;49026;52.600;4.694;2022-07-31T05:38:26;15.65;;;4.25;;
62724;SDS011;49026;52.600;4.694;2022-07-31T05:40:52;15.48;;;4.38;;
62724;SDS011;49026;52.600;4.694;2022-07-31T05:43:19;14.38;;;4.88;;
62724;SDS011;49026;52.600;4.694;2022-07-31T05:45:45;13.93;;;4.57;;
62724;SDS011;49026;52.600;4.694;2022-07-31T05:48:11;20.90;;;4.93;;
62724;SDS011;49026;52.600;4.694;2022-07-31T05:50:37;14.50;;;4.00;;
62724;SDS011;49026;52.600;4.694;2022-07-31T05:53:05;17.63;;;4.28;;
62724;SDS011;49026;52.600;4.694;2022-07-31T05:55:30;14.00;;;3.97;;
62724;SDS011;49026;52.600;4.694;2022-07-31T05:57:58;15.32;;;4.20;;
62724;SDS011;49026;52.600;4.694;2022-07-31T06:00:23;13.20;;;4.25;;
62724;SDS011;49026;52.600;4.694;2022-07-31T06:02:48;15.48;;;4.57;;
62724;SDS011;49026;52.600;4.694;2022-07-31T06:05:14;19.33;;;4.82;;
62724;SDS011;49026;52.600;4.694;2022-07-31T06:07:39;18.52;;;5.00;;
62724;SDS011;49026;52.600;4.694;2022-07-31T06:10:08;24.60;;;3.80;;
62724;SDS011;49026;52.600;4.694;2022-07-31T06:12:34;14.05;;;3.75;;
62724;SDS011;49026;52.600;4.694;2022-07-31T06:14:59;17.90;;;3.50;;
62724;SDS011;49026;52.600;4.694;2022-07-31T06:17:25;18.70;;;4.35;;
62724;SDS011;49026;52.600;4.694;2022-07-31T06:19:50;14.68;;;3.45;;
62724;SDS011;49026;52.600;4.694;2022-07-31T06:22:15;18.40;;;4.13;;
62724;SDS011;49026;52.600;4.694;2022-07-31T06:24:40;12.77;;;3.33;;
62724;SDS011;49026;52.600;4.694;2022-07-31T06:27:06;19.75;;;5.38;;
62724;SDS011;49026;52.600;4.694;2022-07-31T06:29:31;16.48;;;3.78;;
62724;SDS011;49026;52.600;4.694;2022-07-31T06:31:59;12.20;;;3.10;;
62724;SDS011;49026;52.600;4.694;2022-07-31T06:34:25;13.38;;;4.40;;
62724;SDS011;49026;52.600;4.694;2022-07-31T06:36:52;11.55;;;3.17;;
62724;SDS011;49026;52.600;4.694;2022-07-31T06:39:22;11.25;;;3.47;;
62724;SDS011;49026;52.600;4.694;2022-07-31T06:41:47;13.25;;;4.13;;
62724;SDS011;49026;52.600;4.694;2022-07-31T06:44:16;14.85;;;4.35;;
62724;SDS011;49026;52.600;4.694;2022-07-31T06:46:44;15.63;;;3.67;;
62724;SDS011;49026;52.600;4.694;2022-07-31T06:49:11;16.05;;;4.30;;
62724;SDS011;49026;52.600;4.694;2022-07-31T06:51:39;18.58;;;4.25;;
62724;SDS011;49026;52.600;4.694;2022-07-31T06:54:06;23.08;;;4.47;;
62724;SDS011;49026;52.600;4.694;2022-07-31T06:56:33;13.50;;;3.75;;
62724;SDS011;49026;52.600;4.694;2022-07-31T06:59:00;13.73;;;4.20;;
62724;SDS011;49026;52.600;4.694;2022-07-31T07:01:25;11.40;;;4.38;;
62724;SDS011;49026;52.600;4.694;2022-07-31T07:03:51;15.95;;;4.50;;
62724;SDS011;49026;52.600;4.694;2022-07-31T07:06:17;17.13;;;4.40;;
62724;SDS011;49026;52.600;4.694;2022-07-31T07:08:43;13.82;;;4.70;;
62724;SDS011;49026;52.600;4.694;2022-07-31T07:11:08;26.38;;;5.18;;
62724;SDS011;49026;52.600;4.694;2022-07-31T07:13:38;22.20;;;5.05;;
62724;SDS011;49026;52.600;4.694;2022-07-31T07:16:04;18.35;;;5.18;;
62724;SDS011;49026;52.600;4.694;2022-07-31T07:18:39;17.08;;;5.57;;
62724;SDS011;49026;52.600;4.694;2022-07-31T07:21:04;19.65;;;5.60;;
62724;SDS011;49026;52.600;4.694;2022-07-31T07:23:33;13.95;;;5.57;;
62724;SDS011;49026;52.600;4.694;2022-07-31T07:25:58;24.38;;;5.65;;
62724;SDS011;49026;52.600;4.694;2022-07-31T07:28:23;20.23;;;6.10;;
62724;SDS011;49026;52.600;4.694;2022-07-31T07:30:49;25.95;;;7.05;;
62724;SDS011;49026;52.600;4.694;2022-07-31T07:33:14;20.63;;;5.88;;
62724;SDS011;49026;52.600;4.694;2022-07-31T07:35:39;19.55;;;7.13;;
62724;SDS011;49026;52.600;4.694;2022-07-31T07:38:05;23.40;;;5.18;;
62724;SDS011;49026;52.600;4.694;2022-07-31T07:40:31;21.10;;;6.15;;
62724;SDS011;49026;52.600;4.694;2022-07-31T07:42:56;19.63;;;6.20;;
62724;SDS011;49026;52.600;4.694;2022-07-31T07:45:24;19.25;;;6.85;;
62724;SDS011;49026;52.600;4.694;2022-07-31T07:47:50;14.07;;;4.57;;
62724;SDS011;49026;52.600;4.694;2022-07-31T07:50:17;22.05;;;5.72;;
62724;SDS011;49026;52.600;4.694;2022-07-31T07:52:43;23.42;;;5.90;;
62724;SDS011;49026;52.600;4.694;2022-07-31T07:55:08;16.50;;;5.32;;
62724;SDS011;49026;52.600;4.694;2022-07-31T07:57:36;16.83;;;5.28;;
62724;SDS011;49026;52.600;4.694;2022-07-31T08:00:03;12.23;;;4.85;;
62724;SDS011;49026;52.600;4.694;2022-07-31T08:02:32;14.55;;;4.22;;
62724;SDS011;49026;52.600;4.694;2022-07-31T08:04:58;24.90;;;5.43;;
62724;SDS011;49026;52.600;4.694;2022-07-31T08:07:42;18.27;;;4.35;;
62724;SDS011;49026;52.600;4.694;2022-07-31T08:10:09;15.57;;;4.78;;
62724;SDS011;49026;52.600;4.694;2022-07-31T08:12:34;12.60;;;3.83;;
62724;SDS011;49026;52.600;4.694;2022-07-31T08:15:01;13.93;;;4.22;;
62724;SDS011;49026;52.600;4.694;2022-07-31T08:17:27;13.20;;;5.05;;
62724;SDS011;49026;52.600;4.694;2022-07-31T08:19:52;18.05;;;4.65;;
62724;SDS011;49026;52.600;4.694;2022-07-31T08:22:20;13.77;;;4.40;;
62724;SDS011;49026;52.600;4.694;2022-07-31T08:24:47;16.80;;;4.40;;
62724;SDS011;49026;52.600;4.694;2022-07-31T08:27:13;21.55;;;5.47;;
62724;SDS011;49026;52.600;4.694;2022-07-31T08:29:55;14.75;;;4.80;;
62724;SDS011;49026;52.600;4.694;2022-07-31T08:32:23;13.25;;;4.57;;
62724;SDS011;49026;52.600;4.694;2022-07-31T08:34:53;18.03;;;5.17;;
62724;SDS011;49026;52.600;4.694;2022-07-31T08:37:21;13.73;;;5.20;;
62724;SDS011;49026;52.600;4.694;2022-07-31T08:39:47;16.77;;;5.30;;
62724;SDS011;49026;52.600;4.694;2022-07-31T08:42:16;12.40;;;5.05;;
62724;SDS011;49026;52.600;4.694;2022-07-31T08:44:42;13.45;;;5.53;;
62724;SDS011;49026;52.600;4.694;2022-07-31T08:47:09;17.05;;;6.13;;
62724;SDS011;49026;52.600;4.694;2022-07-31T08:49:37;17.33;;;6.38;;
62724;SDS011;49026;52.600;4.694;2022-07-31T08:52:06;14.95;;;5.75;;
62724;SDS011;49026;52.600;4.694;2022-07-31T08:54:33;39.78;;;7.03;;
62724;SDS011;49026;52.600;4.694;2022-07-31T08:57:07;13.75;;;6.20;;
62724;SDS011;49026;52.600;4.694;2022-07-31T08:59:32;14.30;;;6.10;;
62724;SDS011;49026;52.600;4.694;2022-07-31T09:01:57;15.95;;;6.25;;
62724;SDS011;49026;52.600;4.694;2022-07-31T09:04:25;14.43;;;5.80;;
62724;SDS011;49026;52.600;4.694;2022-07-31T09:06:53;16.35;;;5.75;;
62724;SDS011;49026;52.600;4.694;2022-07-31T09:09:20;12.23;;;4.63;;
62724;SDS011;49026;52.600;4.694;2022-07-31T09:11:47;8.75;;;5.30;;
62724;SDS011;49026;52.600;4.694;2022-07-31T09:14:22;12.30;;;5.93;;
62724;SDS011;49026;52.600;4.694;2022-07-31T09:16:50;13.32;;;6.20;;
62724;SDS011;49026;52.600;4.694;2022-07-31T09:19:18;18.27;;;6.53;;
62724;SDS011;49026;52.600;4.694;2022-07-31T09:21:47;12.98;;;6.72;;
62724;SDS011;49026;52.600;4.694;2022-07-31T09:24:24;13.25;;;6.90;;
62724;SDS011;49026;52.600;4.694;2022-07-31T09:26:52;18.60;;;7.00;;
62724;SDS011;49026;52.600;4.694;2022-07-31T09:29:41;17.10;;;7.22;;
62724;SDS011;49026;52.600;4.694;2022-07-31T09:32:12;19.50;;;8.55;;
62724;SDS011;49026;52.600;4.694;2022-07-31T09:34:43;20.13;;;8.02;;
62724;SDS011;49026;52.600;4.694;2022-07-31T09:39:47;18.35;;;8.52;;
62724;SDS011;49026;52.600;4.694;2022-07-31T09:42:15;23.55;;;8.15;;
62724;SDS011;49026;52.600;4.694;2022-07-31T09:44:41;28.95;;;8.20;;
62724;SDS011;49026;52.600;4.694;2022-07-31T09:47:24;21.05;;;7.25;;
62724;SDS011;49026;52.600;4.694;2022-07-31T09:49:55;20.05;;;6.90;;
62724;SDS011;49026;52.600;4.694;2022-07-31T09:52:22;17.73;;;5.38;;
62724;SDS011;49026;52.600;4.694;2022-07-31T09:55:11;24.13;;;7.57;;
62724;SDS011;49026;52.600;4.694;2022-07-31T09:57:36;18.58;;;7.30;;
62724;SDS011;49026;52.600;4.694;2022-07-31T10:00:05;17.80;;;7.35;;
62724;SDS011;49026;52.600;4.694;2022-07-31T10:05:05;15.93;;;6.13;;
62724;SDS011;49026;52.600;4.694;2022-07-31T10:07:31;16.65;;;7.18;;
62724;SDS011;49026;52.600;4.694;2022-07-31T10:10:00;15.73;;;7.68;;
62724;SDS011;49026;52.600;4.694;2022-07-31T10:12:30;19.45;;;8.00;;
62724;SDS011;49026;52.600;4.694;2022-07-31T10:15:05;21.25;;;8.48;;
62724;SDS011;49026;52.600;4.694;2022-07-31T10:17:34;17.48;;;6.97;;
62724;SDS011;49026;52.600;4.694;2022-07-31T10:20:04;21.42;;;8.68;;
62724;SDS011;49026;52.600;4.694;2022-07-31T10:22:33;19.17;;;7.97;;
62724;SDS011;49026;52.600;4.694;2022-07-31T10:25:02;18.55;;;6.45;;
62724;SDS011;49026;52.600;4.694;2022-07-31T10:27:32;228.17;;;17.17;;
62724;SDS011;49026;52.600;4.694;2022-07-31T10:29:59;22.15;;;7.03;;
62724;SDS011;49026;52.600;4.694;2022-07-31T10:32:25;19.10;;;7.97;;
62724;SDS011;49026;52.600;4.694;2022-07-31T10:34:53;20.85;;;7.75;;
62724;SDS011;49026;52.600;4.694;2022-07-31T10:37:20;19.02;;;6.07;;
62724;SDS011;49026;52.600;4.694;2022-07-31T10:40:03;19.10;;;7.80;;
62724;SDS011;49026;52.600;4.694;2022-07-31T10:42:50;15.18;;;6.70;;
62724;SDS011;49026;52.600;4.694;2022-07-31T10:45:25;22.65;;;7.82;;
62724;SDS011;49026;52.600;4.694;2022-07-31T10:47:52;17.67;;;6.88;;
62724;SDS011;49026;52.600;4.694;2022-07-31T10:50:25;22.33;;;7.80;;
62724;SDS011;49026;52.600;4.694;2022-07-31T10:52:51;16.05;;;7.50;;
62724;SDS011;49026;52.600;4.694;2022-07-31T10:55:18;15.60;;;6.47;;
62724;SDS011;49026;52.600;4.694;2022-07-31T10:57:46;17.85;;;5.85;;
62724;SDS011;49026;52.600;4.694;2022-07-31T11:00:13;19.60;;;6.95;;
62724;SDS011;49026;52.600;4.694;2022-07-31T11:02:44;20.00;;;6.80;;
62724;SDS011;49026;52.600;4.694;2022-07-31T11:05:11;18.63;;;6.55;;
62724;SDS011;49026;52.600;4.694;2022-07-31T11:07:39;13.60;;;7.18;;
62724;SDS011;49026;52.600;4.694;2022-07-31T11:10:09;20.90;;;7.30;;
62724;SDS011;49026;52.600;4.694;2022-07-31T11:12:34;18.70;;;7.70;;
62724;SDS011;49026;52.600;4.694;2022-07-31T11:14:59;21.23;;;7.70;;
62724;SDS011;49026;52.600;4.694;2022-07-31T11:17:32;27.25;;;8.52;;
62724;SDS011;49026;52.600;4.694;2022-07-31T11:20:03;18.30;;;8.70;;
62724;SDS011;49026;52.600;4.694;2022-07-31T11:22:33;23.25;;;8.35;;
62724;SDS011;49026;52.600;4.694;2022-07-31T11:24:59;32.38;;;9.10;;
62724;SDS011;49026;52.600;4.694;2022-07-31T11:27:28;23.00;;;8.25;;
62724;SDS011;49026;52.600;4.694;2022-07-31T11:30:06;34.05;;;9.93;;
62724;SDS011;49026;52.600;4.694;2022-07-31T11:32:32;33.03;;;9.98;;
62724;SDS011;49026;52.600;4.694;2022-07-31T11:34:58;28.25;;;9.38;;
62724;SDS011;49026;52.600;4.694;2022-07-31T11:37:24;27.85;;;8.60;;
62724;SDS011;49026;52.600;4.694;2022-07-31T11:39:53;21.60;;;8.90;;
62724;SDS011;49026;52.600;4.694;2022-07-31T11:42:20;26.17;;;9.20;;
62724;SDS011;49026;52.600;4.694;2022-07-31T11:44:46;20.23;;;8.32;;
62724;SDS011;49026;52.600;4.694;2022-07-31T11:47:12;34.95;;;9.27;;
62724;SDS011;49026;52.600;4.694;2022-07-31T11:49:37;27.25;;;7.47;;
62724;SDS011;49026;52.600;4.694;2022-07-31T11:52:07;22.42;;;7.97;;
62724;SDS011;49026;52.600;4.694;2022-07-31T11:54:34;21.90;;;7.85;;
62724;SDS011;49026;52.600;4.694;2022-07-31T11:57:00;22.42;;;8.80;;
62724;SDS011;49026;52.600;4.694;2022-07-31T11:59:33;24.65;;;8.98;;
62724;SDS011;49026;52.600;4.694;2022-07-31T12:02:05;23.45;;;9.23;;
62724;SDS011;49026;52.600;4.694;2022-07-31T12:04:31;22.90;;;10.43;;
62724;SDS011;49026;52.600;4.694;2022-07-31T12:07:07;25.48;;;8.77;;
62724;SDS011;49026;52.600;4.694;2022-07-31T12:09:33;24.52;;;11.10;;
62724;SDS011;49026;52.600;4.694;2022-07-31T12:12:03;24.40;;;9.48;;
62724;SDS011;49026;52.600;4.694;2022-07-31T12:14:30;20.52;;;8.43;;
62724;SDS011;49026;52.600;4.694;2022-07-31T12:17:05;18.10;;;8.95;;
62724;SDS011;49026;52.600;4.694;2022-07-31T12:19:34;18.73;;;9.65;;
62724;SDS011;49026;52.600;4.694;2022-07-31T12:22:11;17.98;;;9.45;;
62724;SDS011;49026;52.600;4.694;2022-07-31T12:24:42;24.23;;;11.30;;
62724;SDS011;49026;52.600;4.694;2022-07-31T12:27:12;22.08;;;11.75;;
62724;SDS011;49026;52.600;4.694;2022-07-31T12:29:39;22.38;;;10.75;;
62724;SDS011;49026;52.600;4.694;2022-07-31T12:32:05;23.40;;;11.88;;
62724;SDS011;49026;52.600;4.694;2022-07-31T12:37:11;21.70;;;10.40;;
62724;SDS011;49026;52.600;4.694;2022-07-31T12:42:20;26.95;;;10.35;;
62724;SDS011;49026;52.600;4.694;2022-07-31T12:44:51;22.85;;;9.07;;
62724;SDS011;49026;52.600;4.694;2022-07-31T12:47:21;20.65;;;8.60;;
62724;SDS011;49026;52.600;4.694;2022-07-31T12:49:51;24.33;;;8.40;;
62724;SDS011;49026;52.600;4.694;2022-07-31T12:52:17;28.05;;;10.23;;
62724;SDS011;49026;52.600;4.694;2022-07-31T12:54:42;20.25;;;9.38;;
62724;SDS011;49026;52.600;4.694;2022-07-31T12:57:08;19.17;;;8.23;;
62724;SDS011;49026;52.600;4.694;2022-07-31T12:59:36;23.38;;;9.52;;
62724;SDS011;49026;52.600;4.694;2022-07-31T13:02:04;16.23;;;8.75;;
62724;SDS011;49026;52.600;4.694;2022-07-31T13:04:30;19.30;;;8.85;;
62724;SDS011;49026;52.600;4.694;2022-07-31T13:06:58;15.15;;;8.82;;
62724;SDS011;49026;52.600;4.694;2022-07-31T13:09:26;17.95;;;8.57;;
62724;SDS011;49026;52.600;4.694;2022-07-31T13:11:51;15.88;;;9.32;;
62724;SDS011;49026;52.600;4.694;2022-07-31T13:14:18;15.10;;;8.10;;
62724;SDS011;49026;52.600;4.694;2022-07-31T13:16:48;20.08;;;9.60;;
62724;SDS011;49026;52.600;4.694;2022-07-31T13:19:16;28.10;;;9.77;;
62724;SDS011;49026;52.600;4.694;2022-07-31T13:21:44;20.15;;;8.57;;
62724;SDS011;49026;52.600;4.694;2022-07-31T13:24:09;16.70;;;8.77;;
62724;SDS011;49026;52.600;4.694;2022-07-31T13:26:37;21.25;;;10.07;;
62724;SDS011;49026;52.600;4.694;2022-07-31T13:29:04;19.60;;;9.07;;
62724;SDS011;49026;52.600;4.694;2022-07-31T13:31:29;21.58;;;9.55;;
62724;SDS011;49026;52.600;4.694;2022-07-31T13:33:55;11.45;;;5.70;;
62724;SDS011;49026;52.600;4.694;2022-07-31T13:36:23;13.50;;;6.18;;
62724;SDS011;49026;52.600;4.694;2022-07-31T13:38:49;14.98;;;7.03;;
62724;SDS011;49026;52.600;4.694;2022-07-31T13:41:15;22.63;;;8.73;;
62724;SDS011;49026;52.600;4.694;2022-07-31T13:43:52;16.73;;;8.15;;
62724;SDS011;49026;52.600;4.694;2022-07-31T13:46:19;19.75;;;9.27;;
62724;SDS011;49026;52.600;4.694;2022-07-31T13:48:45;18.60;;;8.45;;
62724;SDS011;49026;52.600;4.694;2022-07-31T13:51:11;21.13;;;8.77;;
62724;SDS011;49026;52.600;4.694;2022-07-31T13:53:37;20.23;;;8.52;;
62724;SDS011;49026;52.600;4.694;2022-07-31T13:56:02;20.60;;;8.90;;
62724;SDS011;49026;52.600;4.694;2022-07-31T13:58:28;22.98;;;8.15;;
62724;SDS011;49026;52.600;4.694;2022-07-31T14:00:54;22.85;;;7.78;;
62724;SDS011;49026;52.600;4.694;2022-07-31T14:03:20;17.77;;;6.70;;
62724;SDS011;49026;52.600;4.694;2022-07-31T14:05:45;18.17;;;6.88;;
62724;SDS011;49026;52.600;4.694;2022-07-31T14:08:11;15.77;;;5.95;;
62724;SDS011;49026;52.600;4.694;2022-07-31T14:10:36;16.30;;;7.55;;
62724;SDS011;49026;52.600;4.694;2022-07-31T14:13:01;15.77;;;6.43;;
62724;SDS011;49026;52.600;4.694;2022-07-31T14:15:27;22.70;;;6.53;;
62724;SDS011;49026;52.600;4.694;2022-07-31T14:17:52;20.23;;;9.02;;
62724;SDS011;49026;52.600;4.694;2022-07-31T14:20:17;18.77;;;7.93;;
62724;SDS011;49026;52.600;4.694;2022-07-31T14:22:43;16.15;;;8.02;;
62724;SDS011;49026;52.600;4.694;2022-07-31T14:25:09;18.38;;;8.63;;
62724;SDS011;49026;52.600;4.694;2022-07-31T14:27:36;18.88;;;7.93;;
62724;SDS011;49026;52.600;4.694;2022-07-31T14:30:02;17.00;;;7.80;;
62724;SDS011;49026;52.600;4.694;2022-07-31T14:32:29;20.23;;;8.35;;
62724;SDS011;49026;52.600;4.694;2022-07-31T14:34:55;24.88;;;11.55;;
62724;SDS011;49026;52.600;4.694;2022-07-31T14:37:20;21.23;;;8.88;;
62724;SDS011;49026;52.600;4.694;2022-07-31T14:39:46;23.23;;;9.00;;
62724;SDS011;49026;52.600;4.694;2022-07-31T14:42:11;23.67;;;8.75;;
62724;SDS011;49026;52.600;4.694;2022-07-31T14:44:37;22.02;;;8.23;;
62724;SDS011;49026;52.600;4.694;2022-07-31T14:47:05;24.92;;;8.20;;
62724;SDS011;49026;52.600;4.694;2022-07-31T14:49:30;19.73;;;7.88;;
62724;SDS011;49026;52.600;4.694;2022-07-31T14:51:58;29.67;;;8.80;;
62724;SDS011;49026;52.600;4.694;2022-07-31T14:54:24;23.30;;;8.93;;
62724;SDS011;49026;52.600;4.694;2022-07-31T14:56:52;22.55;;;7.55;;
62724;SDS011;49026;52.600;4.694;2022-07-31T14:59:19;18.45;;;6.45;;
62724;SDS011;49026;52.600;4.694;2022-07-31T15:01:45;16.98;;;6.90;;
62724;SDS011;49026;52.600;4.694;2022-07-31T15:04:10;24.85;;;6.70;;